This is the latest recevied weather packets stored in our database for station/object WW5JC. If no packets are shown the sender has not sent any weather packets the latest 10 day(s).
| Time | Temp. | Humidity | Pressure | Rain* | Wind** | Luminosity | Snow |
|---|---|---|---|---|---|---|---|
| 1788490766 | 27.78° C | 77% | 1015.2 hPa | 0 mm | - | 0 W/m² | - |
| 1788490462 | 28.33° C | 77% | 1015.1 hPa | 0 mm | - | 0 W/m² | - |
| 1788490162 | 28.33° C | 76% | 1015.1 hPa | 0 mm | - | 0 W/m² | - |
| 1788489857 | 28.89° C | 74% | 1015.1 hPa | 0 mm | - | 0 W/m² | - |
| 1788489553 | 28.89° C | 73% | 1015 hPa | 0 mm | - | 0 W/m² | - |
| 1788489249 | 28.89° C | 74% | 1015 hPa | 0 mm | - | 0 W/m² | - |
| 1788488948 | 28.89° C | 74% | 1015.1 hPa | 0 mm | - | 0 W/m² | - |
| 1788488645 | 28.33° C | 75% | 1015 hPa | 0 mm | - | 0 W/m² | - |
| 1788488341 | 27.78° C | 77% | 1015.1 hPa | 0 mm | - | 0 W/m² | - |
| 1788488036 | 28.33° C | 78% | 1014.9 hPa | 0 mm | - | 0 W/m² | - |
| 1788487748 | 28.89° C | 75% | 1014.5 hPa | 0 mm | - | 0 W/m² | - |
| 1788487427 | 28.89° C | 74% | 1014.3 hPa | 0 mm | - | 0 W/m² | - |
| 1788487125 | 28.89° C | 74% | 1014.4 hPa | 0 mm | - | 0 W/m² | - |
| 1788486821 | 28.89° C | 73% | 1014.5 hPa | 0 mm | - | 0 W/m² | - |
| 1788486519 | 29.44° C | 73% | 1014.3 hPa | 0 mm | - | 0 W/m² | - |
| 1788486214 | 29.44° C | 72% | 1014.2 hPa | 0 mm | - | 0 W/m² | - |
| 1788485910 | 29.44° C | 72% | 1014.1 hPa | 0 mm | - | 0 W/m² | - |
| 1788485606 | 29.44° C | 71% | 1014 hPa | 0 mm | - | 0 W/m² | - |
| 1788485302 | 30° C | 71% | 1013.8 hPa | 0 mm | - | 0 W/m² | - |
| 1788484997 | 30° C | 70% | 1013.8 hPa | 0 mm | - | 0 W/m² | - |
| 1788484696 | 30° C | 69% | 1013.7 hPa | 0 mm | - | 0 W/m² | - |
| 1788484391 | 30.56° C | 68% | 1013.6 hPa | 0 mm | - | 0 W/m² | - |
| 1788484085 | 30.56° C | 68% | 1013.7 hPa | 0 mm | - | 0 W/m² | - |
| 1788483782 | 30.56° C | 67% | 1013.6 hPa | 0 mm | - | 0 W/m² | - |
| 1788483477 | 30.56° C | 67% | 1013.8 hPa | 0 mm | - | 0 W/m² | - |
* Rain latest hour (hover to see other rain measurements)
** Current wind speed in m/s (hover to see current wind gust speed)